KBTP/BTP METAR and TAF weather

Enter ICAO airport designator
Station Type Date Time Source
KBTP METAR 2019/08/24 19:56 UTC NOAA

KBTP 241956Z AUTO 04008KT 10SM OVC065 21/11 A3023 RMK AO2 SLP240 T02110106


Station Type Date Time Source
KBTP Decoded METAR 2019/08/24 19:56 UTC NOAA

Station name not available
Aug 24, 2019 - 03:56 PM EDT / 2019.08.24 1956 UTC
Wind: from the NE (040 degrees) at 9 MPH (8 KT):0
Visibility: 10 mile(s):0
Sky conditions: overcast
Temperature: 70.0 F (21.1 C)
Dew Point: 51.1 F (10.6 C)
Relative Humidity: 51%
Pressure (altimeter): 30.23 in. Hg (1023 hPa)
ob: KBTP 241956Z AUTO 04008KT 10SM OVC065 21/11 A3023 RMK AO2 SLP240 T02110106
cycle: 20

Station Type Date Time Source
KBTP TAF UTC NOAA

Error!

Example: see airport list